KBTM

Bert Mooney Airport

Butte, Montana, USA
KBTM 241740Z 2418/2518 32011KT P6SM SCT060 SCT080 FM242000 33012G22KT P6SM SCT060 BKN080 FM250200 32008KT P6SM SCT080 FM250400 15004KT P6SM SKC
Issued Valid From Valid To
Sep-24 @ 17:40 UTC
(2 hours ago)
Sep-24 @ 18:00 UTC
(an hour ago)
Sep-25 @ 18:00 UTC
(in 23 hours)
Sep-24 @ 18:00 to Sep-24 @ 20:00
KBTM 241740Z 2418/2518 32011KT P6SM SCT060 SCT080
Wind Visibility Clouds
320° at 11 knots Greater than 6 miles
  • Scattered at 6,000' AGL
  • Scattered at 8,000' AGL
From Sep-24 @ 20:00 to Sep-25 @ 02:00
FM242000 33012G22KT P6SM SCT060 BKN080
Wind Visibility Clouds
330° at 12 knots
 Gusting to 22 knots
Greater than 6 miles
  • Scattered at 6,000' AGL
  • Broken at 8,000' AGL
From Sep-25 @ 02:00 to Sep-25 @ 04:00
FM250200 32008KT P6SM SCT080
Wind Visibility Clouds
320° at 8 knots Greater than 6 miles
  • Scattered at 8,000' AGL
From Sep-25 @ 04:00 to Sep-25 @ 18:00
FM250400 15004KT P6SM SKC
Wind Visibility Clouds
150° at 4 knots Greater than 6 miles
  • Clear skies
KBTM 241740Z 2418/2518 32011KT P6SM SCT060 SCT080 FM242000 33012G22KT P6SM SCT060 BKN080 FM250200 32008KT P6SM SCT080 FM250400 15004KT P6SM SKC
Issued Sep-24 @ 17:40 UTC
(2 hours ago)
Valid From Sep-24 @ 18:00 UTC
(an hour ago)
Valid To Sep-25 @ 18:00 UTC
(in 23 hours)
Sep-24 @ 18:00 - Sep-24 @ 20:00
Wind Visibility
320° at 11 knots Greater than 6 miles
Clouds
  • Scattered at 6,000' AGL
  • Scattered at 8,000' AGL
From Sep-24 @ 20:00 - Sep-25 @ 02:00
Wind Visibility
330° at 12 knots
 Gusting to 22 knots
Greater than 6 miles
Clouds
  • Scattered at 6,000' AGL
  • Broken at 8,000' AGL
From Sep-25 @ 02:00 - Sep-25 @ 04:00
Wind Visibility
320° at 8 knots Greater than 6 miles
Clouds
  • Scattered at 8,000' AGL
From Sep-25 @ 04:00 - Sep-25 @ 18:00
Wind Visibility
150° at 4 knots Greater than 6 miles
Clouds
  • Clear skies